Time;durP1;ratioP1;P1;durP2;ratioP2;P2;SDS_P1;SDS_P2;PMS_P1;PMS_P2;Temp;Humidity;BMP_temperature;BMP_pressure;BME280_temperature;BME280_humidity;BME280_pressure;Samples;Min_cycle;Max_cycle;Signal;HPM_P1;HPM_P2
2022/11/01 00:01:28;;;;;;;11.00;6.23;;;4.70;99.90;;;;;;5054441;28;20233;-67
2022/11/01 00:03:55;;;;;;;11.00;6.00;;;4.60;99.90;;;;;;5054625;28;20304;-68
2022/11/01 00:06:22;;;;;;;13.23;6.50;;;4.60;99.90;;;;;;5054974;28;20212;-68
2022/11/01 00:08:50;;;;;;;12.53;6.40;;;4.60;99.90;;;;;;5055220;28;20563;-72
2022/11/01 00:11:18;;;;;;;10.27;6.07;;;4.60;99.90;;;;;;5053391;28;20201;-67
2022/11/01 00:13:45;;;;;;;9.93;5.77;;;4.60;99.90;;;;;;5040037;28;20201;-68
2022/11/01 00:16:13;;;;;;;10.07;5.63;;;4.60;99.90;;;;;;5055144;28;20227;-67
2022/11/01 00:18:40;;;;;;;9.33;5.70;;;4.60;99.90;;;;;;5054719;28;20213;-69
2022/11/01 00:21:07;;;;;;;10.33;5.43;;;4.50;99.90;;;;;;5049251;28;20583;-69
2022/11/01 00:23:33;;;;;;;11.87;5.73;;;4.50;99.90;;;;;;5051548;28;20216;-68
2022/11/01 00:26:02;;;;;;;10.73;5.80;;;4.50;99.90;;;;;;5051072;28;20213;-69
2022/11/01 00:28:29;;;;;;;12.63;6.30;;;4.50;99.90;;;;;;5054969;28;20202;-68
2022/11/01 00:30:57;;;;;;;13.43;6.80;;;4.50;99.90;;;;;;5046817;28;20194;-68
2022/11/01 00:33:24;;;;;;;13.37;7.10;;;4.50;99.90;;;;;;5051331;28;20209;-68
2022/11/01 00:35:51;;;;;;;10.27;6.37;;;4.50;99.90;;;;;;5053874;28;20197;-68
2022/11/01 00:38:19;;;;;;;11.10;6.10;;;4.50;99.90;;;;;;5054500;28;20209;-68
2022/11/01 00:40:46;;;;;;;12.03;5.90;;;4.50;99.90;;;;;;5053385;28;20217;-69
2022/11/01 00:43:14;;;;;;;13.73;6.03;;;4.40;99.90;;;;;;5054751;28;20543;-71
2022/11/01 00:45:43;;;;;;;15.20;6.17;;;4.40;99.90;;;;;;5053722;28;20232;-68
2022/11/01 00:48:10;;;;;;;12.60;6.30;;;4.30;99.90;;;;;;5053751;28;20228;-68
2022/11/01 00:50:37;;;;;;;14.43;6.87;;;4.20;99.90;;;;;;5054348;28;20205;-68
2022/11/01 00:53:03;;;;;;;14.47;6.70;;;4.10;99.90;;;;;;5053739;28;20531;-68
2022/11/01 00:55:30;;;;;;;12.27;6.40;;;4.10;99.90;;;;;;5054208;28;20554;-68
2022/11/01 00:57:57;;;;;;;13.90;6.67;;;4.10;99.90;;;;;;5053686;28;20209;-67
2022/11/01 01:00:25;;;;;;;13.87;6.23;;;4.10;99.90;;;;;;5053415;28;20226;-68
2022/11/01 01:02:52;;;;;;;16.30;6.00;;;4.00;99.90;;;;;;5054014;28;20190;-67
2022/11/01 01:05:19;;;;;;;13.10;6.33;;;4.00;99.90;;;;;;5054160;28;20673;-68
2022/11/01 01:07:46;;;;;;;14.33;5.63;;;4.00;99.90;;;;;;5053737;28;20205;-68
2022/11/01 01:10:13;;;;;;;12.87;5.70;;;4.00;99.90;;;;;;5053893;28;20202;-68
2022/11/01 01:12:39;;;;;;;10.57;5.67;;;4.00;99.90;;;;;;5053216;28;20212;-69
2022/11/01 01:15:08;;;;;;;8.97;5.20;;;4.00;99.90;;;;;;5053921;28;20205;-67
2022/11/01 01:17:36;;;;;;;11.67;5.50;;;4.00;99.90;;;;;;5053757;28;20213;-68
2022/11/01 01:20:04;;;;;;;9.73;5.23;;;4.00;99.90;;;;;;5053749;28;20308;-67
2022/11/01 01:22:31;;;;;;;10.83;5.13;;;4.00;99.90;;;;;;5053751;28;20205;-68
2022/11/01 01:24:57;;;;;;;9.23;5.40;;;3.90;99.90;;;;;;5053387;28;20724;-68
2022/11/01 01:27:24;;;;;;;11.43;5.47;;;3.90;99.90;;;;;;5053472;28;20300;-67
2022/11/01 01:29:52;;;;;;;9.83;5.63;;;3.90;99.90;;;;;;5052590;28;20552;-67
2022/11/01 01:32:22;;;;;;;9.40;5.20;;;3.80;99.90;;;;;;5053176;28;20206;-68
2022/11/01 01:34:50;;;;;;;8.73;5.17;;;3.80;99.90;;;;;;5053549;28;20201;-68
2022/11/01 01:37:19;;;;;;;9.90;5.40;;;3.90;99.90;;;;;;5053573;28;20211;-69
2022/11/01 01:39:46;;;;;;;9.90;5.90;;;3.90;99.90;;;;;;5053193;28;20215;-68
2022/11/01 01:42:19;;;;;;;11.23;5.60;;;3.90;99.90;;;;;;5052960;28;20205;-66
2022/11/01 01:45:19;;;;;;;9.73;5.30;;;3.90;99.90;;;;;;5052299;28;20259;-67
2022/11/01 01:47:49;;;;;;;8.60;4.93;;;3.90;99.90;;;;;;5037400;28;20239;-69
2022/11/01 01:50:20;;;;;;;10.03;5.00;;;3.90;99.90;;;;;;5053204;28;20198;-68
2022/11/01 01:52:51;;;;;;;10.37;5.53;;;3.90;99.90;;;;;;5052567;28;20196;-68
2022/11/01 01:55:21;;;;;;;11.80;5.93;;;3.90;99.90;;;;;;5053173;28;20205;-68
2022/11/01 01:57:49;;;;;;;11.27;5.87;;;3.90;99.90;;;;;;5050181;28;20197;-68
2022/11/01 02:00:17;;;;;;;10.30;5.90;;;3.80;99.90;;;;;;5041046;28;20229;-68
2022/11/01 02:02:44;;;;;;;12.20;5.93;;;3.90;99.90;;;;;;5050674;28;20207;-68
2022/11/01 02:05:17;;;;;;;12.47;6.20;;;3.80;99.90;;;;;;5050644;28;20519;-69
2022/11/01 02:07:46;;;;;;;16.27;6.50;;;3.80;99.90;;;;;;5045129;28;20210;-68
2022/11/01 02:10:14;;;;;;;10.20;5.77;;;3.80;99.90;;;;;;5049225;28;20201;-68
2022/11/01 02:12:46;;;;;;;13.53;6.27;;;3.80;99.90;;;;;;5050154;28;20652;-67
2022/11/01 02:15:13;;;;;;;11.53;6.43;;;3.80;99.90;;;;;;5053171;28;20190;-67
2022/11/01 02:17:50;;;;;;;10.57;5.93;;;3.80;99.90;;;;;;5050411;28;20201;-67
2022/11/01 02:20:38;;;;;;;11.13;5.97;;;3.80;99.90;;;;;;5047461;28;20220;-67
2022/11/01 02:23:29;;;;;;;9.60;6.17;;;3.80;99.90;;;;;;5052767;28;20567;-66
2022/11/01 02:26:11;;;;;;;13.57;6.30;;;3.80;99.90;;;;;;5052432;28;20193;-67
2022/11/01 02:28:54;;;;;;;10.93;5.70;;;3.80;99.90;;;;;;5052434;28;20193;-67
2022/11/01 02:31:40;;;;;;;12.13;6.13;;;3.80;99.90;;;;;;5052815;28;20196;-68
2022/11/01 02:34:14;;;;;;;9.77;5.60;;;3.70;99.90;;;;;;5052673;28;20189;-67
2022/11/01 02:36:47;;;;;;;13.00;5.77;;;3.70;99.90;;;;;;5052367;28;20212;-67
2022/11/01 02:39:19;;;;;;;7.87;5.13;;;3.70;99.90;;;;;;5052724;28;20280;-68
2022/11/01 02:41:55;;;;;;;9.47;5.87;;;3.70;99.90;;;;;;5052235;28;20225;-67
2022/11/01 02:44:27;;;;;;;13.03;6.23;;;3.70;99.90;;;;;;5049007;28;20221;-67
2022/11/01 02:47:01;;;;;;;12.07;5.90;;;3.60;99.90;;;;;;5050402;28;20593;-68
2022/11/01 02:49:31;;;;;;;12.87;6.13;;;3.60;99.90;;;;;;5051424;28;20605;-67
2022/11/01 02:52:00;;;;;;;9.50;5.63;;;3.60;99.90;;;;;;5050762;28;20224;-67
2022/11/01 02:54:30;;;;;;;10.53;5.80;;;3.60;99.90;;;;;;5049674;28;20308;-68
2022/11/01 02:57:17;;;;;;;11.23;6.30;;;3.50;99.90;;;;;;5050472;28;20656;-68
2022/11/01 02:59:46;;;;;;;14.27;7.00;;;3.50;99.90;;;;;;5043539;28;20228;-69
2022/11/01 03:02:18;;;;;;;14.83;6.60;;;3.50;99.90;;;;;;5050923;28;20233;-68
2022/11/01 03:04:48;;;;;;;15.47;6.83;;;3.40;99.90;;;;;;5051836;28;20269;-69
2022/11/01 03:07:16;;;;;;;14.23;6.50;;;3.40;99.90;;;;;;5051223;28;20201;-69
2022/11/01 03:09:44;;;;;;;14.93;7.17;;;3.40;99.90;;;;;;5052325;28;20594;-69
2022/11/01 03:12:20;;;;;;;12.03;6.27;;;3.40;99.90;;;;;;5055918;28;20205;-69
2022/11/01 03:14:53;;;;;;;13.50;6.47;;;3.40;99.90;;;;;;5055540;28;20190;-69
2022/11/01 03:17:31;;;;;;;15.83;6.50;;;3.50;99.90;;;;;;5055285;28;20206;-71
2022/11/01 03:20:06;;;;;;;12.67;6.03;;;3.50;99.90;;;;;;5056723;28;20280;-69
2022/11/01 03:22:40;;;;;;;11.60;5.67;;;3.50;99.90;;;;;;5055082;28;20217;-69
2022/11/01 03:27:56;;;;;;;16.00;6.60;;;3.50;99.90;;;;;;5054724;28;20671;-70
2022/11/01 03:30:23;;;;;;;13.63;6.53;;;3.50;99.90;;;;;;5055550;28;20201;-70
2022/11/01 03:32:53;;;;;;;12.90;5.93;;;3.50;99.90;;;;;;5053626;28;20651;-68
2022/11/01 03:35:24;;;;;;;15.53;6.17;;;3.40;99.90;;;;;;5055640;28;20194;-69
2022/11/01 03:37:55;;;;;;;12.37;6.30;;;3.50;99.90;;;;;;5054085;28;20212;-67
2022/11/01 03:40:24;;;;;;;12.83;6.00;;;3.50;99.90;;;;;;5055550;28;20189;-67
2022/11/01 03:42:54;;;;;;;10.93;6.03;;;3.50;99.90;;;;;;5054273;28;20209;-68
2022/11/01 03:45:25;;;;;;;12.20;5.73;;;3.50;99.90;;;;;;5054950;28;20201;-69
2022/11/01 03:47:52;;;;;;;11.10;5.50;;;3.40;99.90;;;;;;5053817;28;20221;-68
2022/11/01 03:50:21;;;;;;;12.00;5.97;;;3.40;99.90;;;;;;5055079;28;20316;-70
2022/11/01 03:52:49;;;;;;;13.67;6.53;;;3.40;99.90;;;;;;5055471;28;20216;-69
2022/11/01 03:55:20;;;;;;;12.53;5.57;;;3.30;99.90;;;;;;5055388;28;20216;-70
2022/11/01 03:57:47;;;;;;;11.70;6.37;;;3.30;99.90;;;;;;5055030;28;20211;-67
2022/11/01 04:00:16;;;;;;;15.70;6.50;;;3.30;99.90;;;;;;5055369;28;20675;-67
2022/11/01 04:02:43;;;;;;;13.70;7.10;;;3.30;99.90;;;;;;5055337;28;20213;-67
2022/11/01 04:05:10;;;;;;;13.00;7.33;;;3.20;99.90;;;;;;5055567;28;20861;-69
2022/11/01 04:07:38;;;;;;;10.63;6.23;;;3.20;99.90;;;;;;5053853;28;20205;-68
2022/11/01 04:10:06;;;;;;;15.03;6.70;;;3.20;99.90;;;;;;5054796;28;20209;-68
2022/11/01 04:12:33;;;;;;;12.43;6.17;;;3.20;99.90;;;;;;5054628;28;20221;-69
2022/11/01 04:20:34;;;;;;;9.87;6.10;;;3.20;99.90;;;;;;5054067;28;20193;-68
2022/11/01 04:23:04;;;;;;;9.70;5.77;;;3.10;99.90;;;;;;5054700;28;20190;-68
2022/11/01 04:25:32;;;;;;;13.80;6.13;;;3.20;99.90;;;;;;5054528;28;20200;-69
2022/11/01 04:27:59;;;;;;;11.13;6.27;;;3.10;99.90;;;;;;5051904;28;20211;-68
2022/11/01 04:30:28;;;;;;;13.07;6.33;;;3.10;99.90;;;;;;5054683;28;20663;-68
2022/11/01 04:32:55;;;;;;;13.00;6.73;;;3.10;99.90;;;;;;5054645;28;20208;-68
2022/11/01 04:35:23;;;;;;;12.67;6.97;;;3.10;99.90;;;;;;5054185;28;20212;-68
2022/11/01 04:37:56;;;;;;;11.70;6.23;;;3.10;99.90;;;;;;5053274;28;20209;-67
2022/11/01 04:40:25;;;;;;;11.20;6.50;;;3.10;99.90;;;;;;5052127;28;20262;-70
2022/11/01 04:42:52;;;;;;;16.03;7.00;;;3.10;99.90;;;;;;5053674;28;20202;-69
2022/11/01 08:51:35;;;;;;;11.37;4.60;;;6.80;99.90;;;;;;5109514;27;20692;-69
2022/11/01 08:54:01;;;;;;;9.87;4.27;;;7.90;99.90;;;;;;5109133;28;20203;-68
2022/11/01 08:56:29;;;;;;;8.80;4.03;;;8.00;99.90;;;;;;5109598;28;20746;-68
2022/11/01 08:58:56;;;;;;;8.50;4.20;;;8.20;99.90;;;;;;5098719;28;20533;-67
2022/11/01 09:01:25;;;;;;;9.00;4.47;;;8.30;99.90;;;;;;5101084;28;20665;-67
2022/11/01 09:03:55;;;;;;;7.90;3.87;;;8.40;99.90;;;;;;5109273;28;20796;-68
2022/11/01 09:06:22;;;;;;;11.50;4.30;;;8.50;99.90;;;;;;5088900;28;20200;-68
2022/11/01 09:08:52;;;;;;;6.30;3.60;;;8.60;99.90;;;;;;5089105;28;20754;-67
2022/11/01 09:11:19;;;;;;;7.20;4.07;;;8.70;99.90;;;;;;5088894;28;20341;-67
2022/11/01 09:13:46;;;;;;;10.93;4.33;;;8.80;99.90;;;;;;5088951;28;20211;-68
2022/11/01 09:16:13;;;;;;;9.20;4.10;;;8.90;99.90;;;;;;5088912;28;20246;-68
2022/11/01 09:18:39;;;;;;;6.67;3.60;;;8.90;99.90;;;;;;5087785;28;20208;-68
2022/11/01 09:21:06;;;;;;;7.10;3.80;;;9.00;99.90;;;;;;5093686;28;20196;-67
2022/11/01 09:23:34;;;;;;;10.90;3.97;;;9.00;99.90;;;;;;5095883;28;20256;-67
2022/11/01 09:26:07;;;;;;;9.27;3.60;;;9.10;99.90;;;;;;5099234;28;20196;-69
2022/11/01 09:28:34;;;;;;;8.00;3.40;;;9.20;99.90;;;;;;5109791;28;20629;-69
2022/11/01 09:31:02;;;;;;;7.73;2.83;;;9.20;99.90;;;;;;5089477;28;20709;-69
2022/11/01 09:33:29;;;;;;;8.20;2.87;;;9.30;99.90;;;;;;5088414;28;20262;-68
2022/11/01 09:35:56;;;;;;;6.63;3.10;;;9.40;99.90;;;;;;5088650;28;20230;-70
2022/11/01 09:38:23;;;;;;;5.70;2.70;;;9.40;99.90;;;;;;5088476;28;20228;-75
2022/11/01 09:40:59;;;;;;;8.17;3.20;;;9.40;99.90;;;;;;5101861;28;20233;-69
2022/11/01 09:43:32;;;;;;;7.73;2.97;;;9.50;99.90;;;;;;5088266;28;20189;-69
2022/11/01 09:46:00;;;;;;;4.60;2.70;;;9.50;99.90;;;;;;5088568;28;20199;-69
2022/11/01 09:48:29;;;;;;;5.70;2.50;;;9.60;99.90;;;;;;5088498;28;20204;-71
2022/11/01 09:50:56;;;;;;;5.63;2.60;;;9.60;99.90;;;;;;5088687;28;20240;-67
2022/11/01 09:53:25;;;;;;;10.10;2.90;;;9.60;99.90;;;;;;5089947;28;20518;-70
2022/11/01 09:55:57;;;;;;;8.87;2.70;;;9.70;99.90;;;;;;5095005;28;20565;-70
2022/11/01 09:58:34;;;;;;;7.63;2.97;;;9.80;99.90;;;;;;5095132;28;20641;-70
2022/11/01 10:01:15;;;;;;;5.27;2.57;;;9.80;99.90;;;;;;5094993;28;20187;-69
2022/11/01 10:03:56;;;;;;;8.67;3.10;;;9.80;99.90;;;;;;5094912;28;20235;-68
2022/11/01 10:06:27;;;;;;;5.33;2.57;;;9.90;99.90;;;;;;5081465;28;20219;-73
2022/11/01 10:09:02;;;;;;;6.37;2.87;;;10.10;99.90;;;;;;5075941;28;20200;-69
2022/11/01 10:11:47;;;;;;;5.83;2.83;;;10.10;99.90;;;;;;5081835;28;20184;-68
2022/11/01 10:14:27;;;;;;;7.40;2.70;;;10.20;99.90;;;;;;5086024;28;20665;-68
2022/11/01 10:17:04;;;;;;;5.03;2.50;;;10.20;99.90;;;;;;5077575;28;20219;-68
2022/11/01 10:19:34;;;;;;;4.73;2.90;;;10.30;99.90;;;;;;5074281;28;20571;-70
2022/11/01 10:22:06;;;;;;;6.03;2.90;;;10.30;99.90;;;;;;5072422;28;20205;-69
2022/11/01 10:24:39;;;;;;;6.07;2.47;;;10.40;99.90;;;;;;5074569;28;20609;-69
2022/11/01 10:27:13;;;;;;;4.93;2.40;;;10.50;99.90;;;;;;5082531;28;20226;-70
2022/11/01 10:29:47;;;;;;;6.60;2.47;;;10.50;99.90;;;;;;5094139;28;20413;-70
2022/11/01 10:32:25;;;;;;;4.50;2.30;;;10.50;99.90;;;;;;5093477;28;20206;-68
2022/11/01 10:34:54;;;;;;;4.57;2.60;;;10.60;99.90;;;;;;5088487;28;20199;-70
2022/11/01 10:37:26;;;;;;;3.83;2.13;;;10.60;99.90;;;;;;5093832;28;20246;-69
2022/11/01 10:39:56;;;;;;;5.80;2.70;;;10.70;99.90;;;;;;5091468;28;20201;-70
2022/11/01 10:42:27;;;;;;;4.93;2.47;;;10.70;99.90;;;;;;5072046;28;20193;-70
2022/11/01 10:44:58;;;;;;;6.07;2.67;;;10.80;99.90;;;;;;5073516;28;20570;-69
2022/11/01 10:47:26;;;;;;;6.00;2.70;;;10.80;99.90;;;;;;5074406;28;20207;-69
2022/11/01 10:49:59;;;;;;;4.60;2.50;;;10.80;99.90;;;;;;5083685;28;20621;-70
2022/11/01 10:52:31;;;;;;;6.73;2.70;;;10.90;99.90;;;;;;5093322;28;20278;-70
2022/11/01 10:54:59;;;;;;;4.67;2.63;;;11.00;99.90;;;;;;5093455;28;20283;-70
2022/11/01 10:57:34;;;;;;;5.63;2.67;;;11.00;99.90;;;;;;5093618;28;20570;-68
2022/11/01 11:00:06;;;;;;;5.67;2.50;;;11.10;99.90;;;;;;5087768;28;20206;-68
2022/11/01 15:43:18;;;;;;;38.90;13.93;;;9.30;99.90;;;;;;5150676;27;20541;-70
2022/11/01 15:45:48;;;;;;;37.00;13.73;;;9.80;99.90;;;;;;5150333;27;20182;-69
2022/11/01 15:48:19;;;;;;;41.97;14.43;;;9.90;99.90;;;;;;5150865;27;20621;-69
2022/11/01 15:50:48;;;;;;;39.77;13.93;;;10.00;99.90;;;;;;5151263;27;20201;-69
2022/11/01 15:53:20;;;;;;;36.60;13.17;;;10.00;99.90;;;;;;5150588;27;20658;-72
2022/11/01 15:55:50;;;;;;;39.47;15.50;;;10.00;99.90;;;;;;5150603;27;20193;-69
2022/11/01 15:58:20;;;;;;;33.23;14.63;;;10.00;99.90;;;;;;5149082;27;20206;-69
2022/11/01 16:00:51;;;;;;;37.77;16.30;;;10.00;99.90;;;;;;5150455;27;20214;-68
2022/11/01 16:03:23;;;;;;;40.53;15.77;;;10.00;99.90;;;;;;5132605;27;20609;-68
2022/11/01 16:05:53;;;;;;;36.93;15.13;;;10.10;99.90;;;;;;5133539;27;20216;-68
2022/11/01 16:08:25;;;;;;;30.00;14.00;;;10.00;99.90;;;;;;5127808;28;20194;-68
2022/11/01 16:10:52;;;;;;;30.27;14.53;;;10.00;99.90;;;;;;5125997;28;20205;-68
2022/11/01 16:13:20;;;;;;;35.60;15.83;;;10.10;99.90;;;;;;5129385;28;20592;-69
2022/11/01 16:16:02;;;;;;;35.80;16.27;;;10.10;99.90;;;;;;5130298;27;20194;-69
2022/11/01 16:18:33;;;;;;;41.77;16.80;;;10.10;99.90;;;;;;5129138;28;20195;-69
2022/11/01 16:21:01;;;;;;;35.13;15.87;;;10.10;99.90;;;;;;5129015;28;20211;-69
2022/11/01 16:23:28;;;;;;;34.33;16.00;;;10.10;99.90;;;;;;5129764;28;20231;-70
2022/11/01 16:26:03;;;;;;;39.37;17.37;;;10.10;99.90;;;;;;5146285;27;20661;-69
2022/11/01 16:28:38;;;;;;;44.13;17.47;;;10.10;99.90;;;;;;5129134;28;20202;-71
2022/11/01 16:31:18;;;;;;;43.40;19.27;;;10.10;99.90;;;;;;5128930;28;20183;-70
2022/11/01 16:33:46;;;;;;;42.27;21.07;;;10.10;99.90;;;;;;5129075;27;20183;-68
2022/11/01 16:36:40;;;;;;;38.83;20.60;;;10.00;99.90;;;;;;5108625;28;20571;-70
2022/11/01 16:39:27;;;;;;;39.80;21.93;;;10.00;99.90;;;;;;5118631;27;20190;-71
2022/11/01 16:41:55;;;;;;;48.77;22.97;;;10.00;99.90;;;;;;5139650;27;20237;-72
2022/11/01 16:44:23;;;;;;;53.27;23.67;;;10.00;99.90;;;;;;5114885;28;20213;-70
2022/11/01 16:46:50;;;;;;;44.60;21.47;;;10.00;99.90;;;;;;5119970;27;20202;-72
2022/11/01 16:49:21;;;;;;;41.37;21.00;;;10.00;99.90;;;;;;5111707;28;20226;-72
2022/11/01 16:51:48;;;;;;;40.43;20.67;;;10.00;99.90;;;;;;5111468;27;20228;-68
2022/11/01 16:54:15;;;;;;;54.23;23.80;;;9.90;99.90;;;;;;5117282;27;20227;-70
2022/11/01 16:56:44;;;;;;;47.37;25.20;;;9.90;99.90;;;;;;5114840;27;20199;-68
2022/11/01 16:59:27;;;;;;;41.90;21.60;;;9.90;99.90;;;;;;5114850;28;20203;-70
2022/11/01 17:01:56;;;;;;;42.40;20.17;;;9.90;99.90;;;;;;5114627;28;20224;-69
2022/11/01 17:04:25;;;;;;;35.80;18.63;;;9.90;99.90;;;;;;5114852;28;20207;-69
2022/11/01 17:06:53;;;;;;;41.17;20.27;;;9.90;99.90;;;;;;5112155;27;20257;-71
2022/11/01 17:09:21;;;;;;;46.33;24.43;;;9.90;99.90;;;;;;5111622;27;20199;-69
2022/11/01 17:11:49;;;;;;;48.97;23.60;;;9.90;99.90;;;;;;5114419;28;20196;-72
2022/11/01 17:14:16;;;;;;;42.77;23.00;;;9.90;99.90;;;;;;5114587;28;20211;-71
2022/11/01 17:16:46;;;;;;;46.93;22.37;;;9.90;99.90;;;;;;5122070;27;20264;-69
2022/11/01 17:19:21;;;;;;;49.10;23.63;;;9.90;99.90;;;;;;5118723;27;20605;-72
2022/11/01 17:21:50;;;;;;;47.10;23.20;;;9.90;99.90;;;;;;5114420;28;20207;-70
2022/11/01 17:24:20;;;;;;;49.10;25.17;;;9.80;99.90;;;;;;5114534;28;20203;-68
2022/11/01 17:26:48;;;;;;;51.03;24.27;;;9.80;99.90;;;;;;5114633;28;20210;-70
2022/11/01 17:29:15;;;;;;;46.23;23.90;;;9.80;99.90;;;;;;5112913;28;20281;-70
2022/11/01 17:31:41;;;;;;;45.37;24.77;;;9.80;99.90;;;;;;5113403;28;20200;-70
2022/11/01 17:34:09;;;;;;;57.87;28.23;;;9.80;99.90;;;;;;5111613;28;20563;-70
2022/11/01 17:36:38;;;;;;;58.50;27.93;;;9.70;99.90;;;;;;5110504;28;20203;-68
2022/11/01 17:39:05;;;;;;;53.80;28.00;;;9.70;99.90;;;;;;5110934;28;20207;-71
2022/11/01 17:41:31;;;;;;;53.83;27.30;;;9.70;99.90;;;;;;5114060;28;20242;-71
2022/11/01 17:43:58;;;;;;;54.03;28.23;;;9.60;99.90;;;;;;5113585;28;20207;-71
2022/11/01 17:46:26;;;;;;;55.80;28.70;;;9.60;99.90;;;;;;5099698;27;20242;-68
2022/11/01 17:48:53;;;;;;;66.67;32.10;;;9.60;99.90;;;;;;5119940;27;20318;-68
2022/11/01 17:51:21;;;;;;;68.53;33.20;;;9.60;99.90;;;;;;5113844;28;20562;-70
2022/11/01 17:53:53;;;;;;;67.80;34.93;;;9.50;99.90;;;;;;5112939;28;20678;-68
2022/11/01 17:56:20;;;;;;;71.10;36.70;;;9.50;99.90;;;;;;5104464;28;20222;-70
2022/11/01 17:58:49;;;;;;;78.67;38.63;;;9.40;99.90;;;;;;5093467;28;20661;-70
2022/11/01 18:01:17;;;;;;;74.47;38.70;;;9.30;99.90;;;;;;5093575;28;20573;-70
2022/11/01 18:03:44;;;;;;;68.13;37.77;;;9.30;99.90;;;;;;5096365;28;20211;-70
2022/11/01 18:06:11;;;;;;;77.23;38.67;;;9.20;99.90;;;;;;5109427;27;20207;-69
2022/11/01 18:08:45;;;;;;;69.97;37.30;;;9.20;99.90;;;;;;5113862;28;20298;-72
2022/11/01 18:11:19;;;;;;;77.33;39.07;;;9.20;99.90;;;;;;5113567;28;20210;-70
2022/11/01 18:13:57;;;;;;;85.00;37.93;;;9.10;99.90;;;;;;5113582;28;20282;-71
2022/11/01 18:16:28;;;;;;;76.97;37.13;;;9.10;99.90;;;;;;5113820;28;20538;-69
2022/11/01 18:19:07;;;;;;;80.13;38.57;;;9.00;99.90;;;;;;5113513;28;20192;-70
2022/11/01 18:21:44;;;;;;;77.20;36.77;;;9.00;99.90;;;;;;5113241;28;20211;-71
2022/11/01 18:24:16;;;;;;;69.33;34.80;;;9.00;99.90;;;;;;5113636;28;20188;-72
2022/11/01 18:26:44;;;;;;;67.10;34.47;;;8.90;99.90;;;;;;5113559;28;20206;-70
2022/11/01 18:29:18;;;;;;;101.27;48.40;;;8.90;99.90;;;;;;5113427;28;20207;-69
2022/11/01 18:31:48;;;;;;;89.00;41.93;;;8.90;99.90;;;;;;5113120;28;20184;-70
2022/11/01 18:34:26;;;;;;;81.77;38.97;;;8.90;99.90;;;;;;5113229;28;20197;-69
2022/11/01 18:37:00;;;;;;;78.83;37.13;;;8.90;99.90;;;;;;5113240;28;20617;-69
2022/11/01 18:39:36;;;;;;;70.63;34.53;;;8.80;99.90;;;;;;5113241;28;20188;-71
2022/11/01 18:42:06;;;;;;;67.03;32.37;;;8.80;99.90;;;;;;5112496;28;20245;-69
2022/11/01 18:44:33;;;;;;;72.83;34.30;;;8.80;99.90;;;;;;5112838;28;20191;-72
2022/11/01 18:47:05;;;;;;;65.37;31.93;;;8.80;99.90;;;;;;5113105;28;20579;-69
2022/11/01 18:49:31;;;;;;;62.63;30.77;;;8.80;99.90;;;;;;5113448;28;20194;-68
2022/11/01 18:51:59;;;;;;;63.63;31.33;;;8.80;99.90;;;;;;5112944;28;20274;-68
2022/11/01 18:54:29;;;;;;;61.90;30.80;;;8.80;99.90;;;;;;5112681;28;20659;-68
2022/11/01 18:56:58;;;;;;;50.67;26.33;;;8.80;99.90;;;;;;5112832;28;20689;-70
2022/11/01 18:59:28;;;;;;;49.87;26.50;;;8.80;99.90;;;;;;5112635;28;20322;-69
2022/11/01 19:01:59;;;;;;;44.70;23.03;;;8.80;99.90;;;;;;5112437;28;20246;-68
2022/11/01 19:04:30;;;;;;;52.27;24.73;;;8.70;99.90;;;;;;5112919;28;20191;-71
2022/11/01 19:07:03;;;;;;;41.77;21.80;;;8.70;99.90;;;;;;5112590;28;20741;-72
2022/11/01 19:09:32;;;;;;;44.77;22.97;;;8.70;99.90;;;;;;5112815;28;20244;-71
2022/11/01 19:12:02;;;;;;;44.57;22.47;;;8.70;99.90;;;;;;5111689;28;20223;-71
2022/11/01 19:14:31;;;;;;;45.00;22.50;;;8.70;99.90;;;;;;5111762;28;20196;-72
2022/11/01 19:16:58;;;;;;;51.10;24.87;;;8.70;99.90;;;;;;5096625;28;20203;-71
2022/11/01 19:19:24;;;;;;;55.97;25.67;;;8.60;99.90;;;;;;5092308;28;20234;-71
2022/11/01 19:21:55;;;;;;;52.43;24.77;;;8.60;99.90;;;;;;5091980;28;20232;-69
2022/11/01 19:24:31;;;;;;;55.57;26.17;;;8.50;99.90;;;;;;5091250;28;20343;-68
2022/11/01 19:27:01;;;;;;;53.03;24.30;;;8.50;99.90;;;;;;5104135;28;20195;-69
2022/11/01 19:29:33;;;;;;;53.80;25.80;;;8.50;99.90;;;;;;5112370;28;20213;-70
2022/11/01 19:32:03;;;;;;;49.03;25.33;;;8.50;99.90;;;;;;5112317;28;20191;-69
2022/11/01 19:34:35;;;;;;;61.47;29.33;;;8.50;99.90;;;;;;5112084;28;20209;-68
2022/11/01 19:37:05;;;;;;;57.53;25.70;;;8.50;99.90;;;;;;5111462;28;20191;-67
2022/11/01 19:39:35;;;;;;;51.97;24.40;;;8.40;99.90;;;;;;5109541;28;20522;-68
2022/11/01 19:42:14;;;;;;;48.00;22.60;;;8.40;99.90;;;;;;5111570;28;20243;-68
2022/11/01 19:44:41;;;;;;;50.20;23.40;;;8.40;99.90;;;;;;5111311;28;20191;-70
2022/11/01 19:47:36;;;;;;;50.57;23.77;;;8.40;99.90;;;;;;5111828;28;20203;-69
2022/11/01 19:50:15;;;;;;;56.23;24.10;;;8.40;99.90;;;;;;5110274;28;20195;-67
2022/11/01 19:52:43;;;;;;;45.93;22.77;;;8.40;99.90;;;;;;5111902;28;20229;-70
2022/11/01 19:55:37;;;;;;;50.93;22.87;;;8.40;99.90;;;;;;5110639;28;20579;-70
2022/11/01 19:58:27;;;;;;;51.50;23.67;;;8.30;99.90;;;;;;5097451;28;20215;-70
2022/11/01 20:01:21;;;;;;;48.70;23.07;;;8.30;99.90;;;;;;5112003;28;20203;-68
2022/11/01 20:03:54;;;;;;;43.93;21.27;;;8.30;99.90;;;;;;5111036;28;20212;-69
2022/11/01 20:06:23;;;;;;;42.87;21.47;;;8.30;99.90;;;;;;5111818;28;20295;-71
2022/11/01 20:08:51;;;;;;;43.17;20.67;;;8.30;99.90;;;;;;5111659;28;20583;-69
2022/11/01 20:11:18;;;;;;;44.47;19.80;;;8.30;99.90;;;;;;5099554;28;20572;-71
2022/11/01 20:13:46;;;;;;;39.33;18.63;;;8.30;99.90;;;;;;5111609;28;20760;-69
2022/11/01 20:16:13;;;;;;;39.20;19.47;;;8.30;99.90;;;;;;5111906;28;20214;-71
2022/11/01 20:18:40;;;;;;;51.17;22.07;;;8.30;99.90;;;;;;5113719;28;20203;-70
2022/11/01 20:21:07;;;;;;;44.63;20.53;;;8.40;99.90;;;;;;5115534;28;20199;-69
2022/11/01 20:23:34;;;;;;;43.47;21.93;;;8.30;99.90;;;;;;5115509;28;20588;-69
2022/11/01 20:26:02;;;;;;;42.40;21.53;;;8.40;99.90;;;;;;5126249;27;20204;-69
2022/11/01 20:28:29;;;;;;;44.00;21.77;;;8.30;99.90;;;;;;5115216;28;20200;-71
2022/11/01 20:30:58;;;;;;;47.07;22.13;;;8.30;99.90;;;;;;5115641;28;20203;-70
2022/11/01 20:33:25;;;;;;;44.70;21.50;;;8.30;99.90;;;;;;5115491;28;20210;-71
2022/11/01 20:35:52;;;;;;;44.90;21.93;;;8.30;99.90;;;;;;5114995;28;20209;-69
2022/11/01 20:38:19;;;;;;;45.73;22.13;;;8.20;99.90;;;;;;5097037;28;20199;-69
2022/11/01 20:40:46;;;;;;;44.20;21.23;;;8.20;99.90;;;;;;5114961;28;20203;-71
2022/11/01 20:43:12;;;;;;;44.23;21.47;;;8.20;99.90;;;;;;5114147;28;20231;-70
2022/11/01 20:45:39;;;;;;;46.10;21.37;;;8.20;99.90;;;;;;5116474;27;20198;-69
2022/11/01 20:48:08;;;;;;;42.90;20.17;;;8.20;99.90;;;;;;5133665;27;20281;-70
2022/11/01 20:50:35;;;;;;;39.70;19.17;;;8.10;99.90;;;;;;5135800;27;20225;-70
2022/11/01 20:53:03;;;;;;;40.97;19.63;;;8.10;99.90;;;;;;5134931;27;20202;-67
2022/11/01 20:55:30;;;;;;;39.57;19.33;;;8.10;99.90;;;;;;5135219;27;20271;-69
2022/11/01 20:57:57;;;;;;;39.07;19.00;;;8.10;99.90;;;;;;5128721;27;20195;-69
2022/11/01 21:00:25;;;;;;;40.73;18.73;;;8.00;99.90;;;;;;5115333;27;20214;-69
2022/11/01 21:02:54;;;;;;;41.23;19.50;;;8.00;99.90;;;;;;5114754;28;20701;-71
2022/11/01 21:05:24;;;;;;;43.70;21.30;;;8.00;99.90;;;;;;5114408;28;20214;-69
2022/11/01 21:07:56;;;;;;;41.60;20.23;;;8.00;99.90;;;;;;5115213;28;20279;-68
2022/11/01 21:10:32;;;;;;;42.67;21.73;;;8.00;99.90;;;;;;5115285;28;20195;-68
2022/11/01 21:13:00;;;;;;;45.17;22.63;;;7.90;99.90;;;;;;5114513;28;20215;-70
2022/11/01 21:15:34;;;;;;;44.57;22.20;;;7.90;99.90;;;;;;5114177;28;20200;-72
2022/11/01 21:18:30;;;;;;;47.83;22.10;;;7.90;99.90;;;;;;5113329;28;20743;-71
2022/11/01 21:21:01;;;;;;;43.67;22.23;;;7.80;99.90;;;;;;5111367;28;20234;-71
2022/11/01 21:23:33;;;;;;;61.00;27.73;;;7.70;99.90;;;;;;5111457;28;20223;-72
2022/11/01 21:26:02;;;;;;;61.97;28.77;;;7.70;99.90;;;;;;5113206;27;20256;-72
2022/11/01 21:28:31;;;;;;;49.23;23.20;;;7.70;99.90;;;;;;5111431;28;20661;-71
2022/11/01 21:31:10;;;;;;;47.97;21.70;;;7.60;99.90;;;;;;5111395;28;20213;-72
2022/11/01 21:33:39;;;;;;;43.70;20.27;;;7.60;99.90;;;;;;5113904;28;20210;-71
2022/11/01 21:36:18;;;;;;;47.30;21.43;;;7.60;99.90;;;;;;5114255;28;20200;-70
2022/11/01 21:38:46;;;;;;;43.83;19.83;;;7.60;99.90;;;;;;5115550;28;20564;-72
2022/11/01 21:41:24;;;;;;;40.50;19.90;;;7.50;99.90;;;;;;5111361;28;20231;-71
2022/11/01 21:43:51;;;;;;;45.50;20.20;;;7.50;99.90;;;;;;5106111;27;20207;-71
2022/11/01 21:46:21;;;;;;;37.63;19.17;;;7.50;99.90;;;;;;5107606;27;20206;-69
2022/11/01 21:48:49;;;;;;;50.20;22.40;;;7.50;99.90;;;;;;5107187;28;20273;-71
2022/11/01 21:51:17;;;;;;;38.60;18.33;;;7.50;99.90;;;;;;5107487;28;20203;-67
2022/11/01 21:53:44;;;;;;;37.43;18.67;;;7.50;99.90;;;;;;5102420;28;20200;-68
2022/11/01 21:56:11;;;;;;;35.63;17.10;;;7.50;99.90;;;;;;5104414;28;20226;-69